Time;durP1;ratioP1;P1;durP2;ratioP2;P2;SDS_P1;SDS_P2;PMS_P1;PMS_P2;Temp;Humidity;BMP_temperature;BMP_pressure;BME280_temperature;BME280_humidity;BME280_pressure;Samples;Min_cycle;Max_cycle;Signal;HPM_P1;HPM_P2
2022/01/27 00:05:49;;;;;;;42.45;17.65;;;;;;;;;;4924216;29;20122;-81
2022/01/27 00:08:20;;;;;;;35.95;18.00;;;;;;;;;;4924949;29;20514;-80
2022/01/27 00:10:57;;;;;;;34.42;17.52;;;;;;;;;;4927934;29;20059;-81
2022/01/27 00:13:30;;;;;;;37.03;18.35;;;;;;;;;;4919280;29;20051;-80
2022/01/27 00:16:00;;;;;;;40.42;17.65;;;;;;;;;;4927640;29;20066;-80
2022/01/27 00:18:29;;;;;;;44.10;19.30;;;;;;;;;;4917250;29;20057;-80
2022/01/27 00:20:55;;;;;;;34.60;17.63;;;;;;;;;;4912916;29;20062;-79
2022/01/27 00:23:21;;;;;;;40.13;19.70;;;;;;;;;;4931210;29;20121;-79
2022/01/27 00:25:48;;;;;;;37.25;17.95;;;;;;;;;;4901453;29;20052;-78
2022/01/27 00:28:14;;;;;;;35.13;18.67;;;;;;;;;;4922810;29;20114;-79
2022/01/27 00:30:40;;;;;;;34.72;18.40;;;;;;;;;;4917173;29;20059;-81
2022/01/27 00:33:07;;;;;;;37.88;18.73;;;;;;;;;;4911226;29;20083;-81
2022/01/27 00:35:34;;;;;;;36.58;18.85;;;;;;;;;;4911431;29;20070;-78
2022/01/27 00:38:01;;;;;;;38.33;18.52;;;;;;;;;;4927130;29;20044;-79
2022/01/27 00:40:27;;;;;;;36.58;16.70;;;;;;;;;;4912682;29;20488;-80
2022/01/27 00:42:53;;;;;;;38.90;18.15;;;;;;;;;;4926313;29;20047;-80
2022/01/27 00:45:19;;;;;;;39.45;18.33;;;;;;;;;;4920776;29;20055;-81
2022/01/27 00:47:45;;;;;;;38.15;18.27;;;;;;;;;;4914984;29;20391;-80
2022/01/27 00:50:15;;;;;;;33.65;19.13;;;;;;;;;;4928451;29;20043;-80
2022/01/27 00:52:46;;;;;;;34.60;17.80;;;;;;;;;;4913581;29;20616;-80
2022/01/27 00:55:14;;;;;;;34.80;17.50;;;;;;;;;;4911733;29;20043;-80
2022/01/27 01:00:10;;;;;;;39.22;17.90;;;;;;;;;;4928768;29;20139;-80
2022/01/27 01:02:55;;;;;;;36.20;16.92;;;;;;;;;;4930499;29;20402;-78
2022/01/27 01:07:54;;;;;;;39.40;18.40;;;;;;;;;;4923131;29;20159;-80
2022/01/27 01:15:51;;;;;;;35.35;19.40;;;;;;;;;;4914685;29;20081;-80
2022/01/27 01:21:23;;;;;;;40.35;20.60;;;;;;;;;;4926081;29;20047;-80
2022/01/27 01:29:51;;;;;;;38.58;20.15;;;;;;;;;;4920314;29;20059;-80
2022/01/27 01:32:39;;;;;;;38.20;20.45;;;;;;;;;;4936820;29;20040;-81
2022/01/27 01:35:06;;;;;;;43.35;20.50;;;;;;;;;;4911324;29;20391;-80
2022/01/27 01:37:37;;;;;;;40.33;19.85;;;;;;;;;;4939482;29;20051;-80
2022/01/27 01:40:05;;;;;;;39.25;21.83;;;;;;;;;;4923215;29;20055;-80
2022/01/27 01:42:31;;;;;;;44.70;22.08;;;;;;;;;;4920654;29;20096;-80
2022/01/27 01:45:02;;;;;;;39.88;20.83;;;;;;;;;;4920250;29;20051;-81
2022/01/27 01:47:28;;;;;;;41.00;21.23;;;;;;;;;;4947202;29;20051;-81
2022/01/27 01:49:54;;;;;;;37.22;20.80;;;;;;;;;;4911369;29;20134;-81
2022/01/27 01:52:20;;;;;;;41.92;20.85;;;;;;;;;;4924912;29;20046;-81
2022/01/27 01:54:46;;;;;;;43.08;22.67;;;;;;;;;;4896356;29;20143;-80
2022/01/27 01:57:12;;;;;;;43.38;22.63;;;;;;;;;;4908912;29;20044;-82
2022/01/27 01:59:38;;;;;;;42.97;22.83;;;;;;;;;;4925305;28;20229;-81
2022/01/27 02:02:04;;;;;;;42.75;23.50;;;;;;;;;;4926154;29;20051;-81
2022/01/27 02:04:31;;;;;;;37.65;21.20;;;;;;;;;;4935022;29;20043;-80
2022/01/27 02:07:01;;;;;;;41.20;21.35;;;;;;;;;;4923440;29;20056;-80
2022/01/27 02:09:45;;;;;;;40.70;23.35;;;;;;;;;;4926412;29;20227;-81
2022/01/27 02:18:00;;;;;;;46.00;23.45;;;;;;;;;;4927559;29;20138;-79
2022/01/27 02:20:27;;;;;;;45.95;24.08;;;;;;;;;;4923128;29;20399;-80
2022/01/27 02:22:53;;;;;;;42.65;24.17;;;;;;;;;;4931101;29;20051;-80
2022/01/27 02:25:19;;;;;;;46.88;24.27;;;;;;;;;;4913301;29;20440;-79
2022/01/27 02:27:45;;;;;;;49.65;26.02;;;;;;;;;;4913640;29;20490;-77
2022/01/27 02:30:11;;;;;;;44.53;24.42;;;;;;;;;;4927138;29;20044;-79
2022/01/27 02:32:37;;;;;;;46.92;24.23;;;;;;;;;;4946204;29;20122;-80
2022/01/27 02:35:05;;;;;;;45.40;24.80;;;;;;;;;;4927106;29;20094;-80
2022/01/27 02:37:31;;;;;;;51.28;25.02;;;;;;;;;;4930019;29;20070;-79
2022/01/27 02:39:57;;;;;;;46.13;25.63;;;;;;;;;;4946516;29;20555;-80
2022/01/27 02:42:31;;;;;;;46.58;24.25;;;;;;;;;;4942596;29;20503;-80
2022/01/27 02:45:01;;;;;;;48.78;24.92;;;;;;;;;;4928038;29;20138;-79
2022/01/27 02:47:27;;;;;;;48.45;24.45;;;;;;;;;;4927213;29;20098;-80
2022/01/27 02:49:54;;;;;;;42.60;23.33;;;;;;;;;;4930578;29;20413;-80
2022/01/27 02:52:20;;;;;;;45.25;26.50;;;;;;;;;;4910609;29;20391;-81
2022/01/27 02:54:46;;;;;;;47.95;25.73;;;;;;;;;;4923867;29;20040;-78
2022/01/27 02:57:12;;;;;;;48.88;25.52;;;;;;;;;;4942059;29;20051;-80
2022/01/27 02:59:38;;;;;;;48.95;25.65;;;;;;;;;;4907362;29;20051;-81
2022/01/27 03:02:05;;;;;;;46.83;26.25;;;;;;;;;;4930439;29;20090;-80
2022/01/27 03:04:33;;;;;;;54.50;27.35;;;;;;;;;;4916967;29;20054;-79
2022/01/27 03:06:59;;;;;;;52.17;26.80;;;;;;;;;;4929658;29;20051;-80
2022/01/27 03:09:25;;;;;;;46.17;25.50;;;;;;;;;;4926928;29;20050;-80
2022/01/27 03:11:53;;;;;;;46.97;25.48;;;;;;;;;;4916418;29;20051;-80
2022/01/27 03:14:20;;;;;;;44.17;26.17;;;;;;;;;;4932445;29;20130;-80
2022/01/27 03:16:47;;;;;;;41.78;24.42;;;;;;;;;;4895944;29;20072;-78
2022/01/27 03:19:13;;;;;;;45.47;25.50;;;;;;;;;;4921894;29;20051;-79
2022/01/27 03:21:39;;;;;;;45.83;24.95;;;;;;;;;;4929168;29;20415;-80
2022/01/27 03:24:05;;;;;;;43.53;24.55;;;;;;;;;;4911877;29;20110;-79
2022/01/27 03:26:32;;;;;;;48.22;26.02;;;;;;;;;;4916847;29;20043;-78
2022/01/27 03:28:58;;;;;;;44.50;25.83;;;;;;;;;;4919511;29;20137;-78
2022/01/27 03:31:25;;;;;;;49.78;24.00;;;;;;;;;;4925514;29;20051;-78
2022/01/27 03:33:51;;;;;;;46.97;24.17;;;;;;;;;;4929068;29;20047;-78
2022/01/27 03:36:17;;;;;;;50.53;24.38;;;;;;;;;;4927764;29;20063;-80
2022/01/27 03:38:44;;;;;;;49.45;22.90;;;;;;;;;;4898157;29;20445;-79
2022/01/27 03:41:10;;;;;;;44.20;24.33;;;;;;;;;;4925332;29;20083;-79
2022/01/27 03:43:39;;;;;;;48.83;23.23;;;;;;;;;;4913074;29;20048;-80
2022/01/27 03:46:05;;;;;;;44.15;25.08;;;;;;;;;;4925292;29;20475;-78
2022/01/27 03:48:31;;;;;;;47.63;24.45;;;;;;;;;;4929073;28;20063;-80
2022/01/27 03:50:57;;;;;;;48.40;23.23;;;;;;;;;;4910827;29;20067;-80
2022/01/27 03:53:24;;;;;;;45.53;25.50;;;;;;;;;;4942278;29;20106;-80
2022/01/27 03:55:50;;;;;;;48.03;23.55;;;;;;;;;;4906531;29;20475;-79
2022/01/27 03:58:16;;;;;;;43.35;23.58;;;;;;;;;;4929277;29;20065;-80
2022/01/27 04:00:42;;;;;;;48.08;24.33;;;;;;;;;;4945559;29;20056;-80
2022/01/27 04:03:11;;;;;;;46.83;23.80;;;;;;;;;;4914904;29;20070;-79
2022/01/27 04:05:42;;;;;;;44.70;23.20;;;;;;;;;;4918281;29;20455;-79
2022/01/27 04:08:08;;;;;;;41.92;23.33;;;;;;;;;;4941949;29;20067;-79
2022/01/27 04:10:35;;;;;;;47.65;23.20;;;;;;;;;;4923698;29;20070;-79
2022/01/27 04:13:02;;;;;;;48.00;22.63;;;;;;;;;;4947959;29;20051;-80
2022/01/27 04:15:28;;;;;;;44.75;22.25;;;;;;;;;;4927433;29;20051;-79
2022/01/27 04:17:54;;;;;;;45.53;22.33;;;;;;;;;;4907810;29;20055;-79
2022/01/27 04:20:21;;;;;;;46.85;21.48;;;;;;;;;;4948884;29;20051;-78
2022/01/27 04:22:47;;;;;;;46.20;20.98;;;;;;;;;;4910212;28;20051;-80
2022/01/27 04:25:13;;;;;;;44.17;22.00;;;;;;;;;;4912918;29;20039;-79
2022/01/27 04:27:43;;;;;;;38.40;21.60;;;;;;;;;;4930521;29;20047;-78
2022/01/27 04:30:21;;;;;;;52.47;22.88;;;;;;;;;;4928935;29;20062;-78
2022/01/27 04:32:56;;;;;;;44.13;22.88;;;;;;;;;;4915486;29;20054;-78
2022/01/27 04:35:25;;;;;;;44.80;21.98;;;;;;;;;;4924299;29;20051;-78
2022/01/27 04:37:59;;;;;;;40.55;21.85;;;;;;;;;;4927894;29;20047;-79
2022/01/27 04:40:28;;;;;;;47.50;21.08;;;;;;;;;;4932571;29;20043;-79
2022/01/27 04:45:43;;;;;;;44.33;22.10;;;;;;;;;;4924184;29;20500;-78
2022/01/27 04:48:13;;;;;;;43.30;21.48;;;;;;;;;;4906963;29;20048;-78
2022/01/27 04:50:39;;;;;;;47.88;21.38;;;;;;;;;;4917049;29;20051;-80
2022/01/27 04:53:10;;;;;;;51.28;22.27;;;;;;;;;;4923520;29;20079;-79
2022/01/27 04:55:36;;;;;;;51.53;23.63;;;;;;;;;;4941590;29;20126;-79
2022/01/27 04:58:11;;;;;;;45.28;21.63;;;;;;;;;;4949138;28;20260;-79
2022/01/27 05:00:37;;;;;;;50.22;22.42;;;;;;;;;;4926091;29;20079;-79
2022/01/27 05:03:12;;;;;;;54.25;22.08;;;;;;;;;;4913925;29;20130;-79
2022/01/27 05:05:39;;;;;;;48.22;22.13;;;;;;;;;;4932025;29;20113;-79
2022/01/27 05:08:09;;;;;;;50.50;21.40;;;;;;;;;;4929404;29;20094;-79
2022/01/27 05:10:36;;;;;;;47.60;23.02;;;;;;;;;;4907236;29;20135;-79
2022/01/27 05:13:16;;;;;;;51.97;23.17;;;;;;;;;;4916501;29;20164;-78
2022/01/27 05:15:45;;;;;;;59.13;24.20;;;;;;;;;;4931267;29;20103;-79
2022/01/27 05:18:11;;;;;;;58.63;22.58;;;;;;;;;;4902183;29;20558;-79
2022/01/27 05:20:37;;;;;;;54.15;22.60;;;;;;;;;;4924479;29;20502;-79
2022/01/27 05:23:04;;;;;;;53.47;23.60;;;;;;;;;;4924783;29;20502;-79
2022/01/27 05:25:30;;;;;;;52.10;21.88;;;;;;;;;;4927575;29;20046;-78
2022/01/27 05:27:56;;;;;;;53.70;24.52;;;;;;;;;;4938710;29;20135;-78
2022/01/27 05:30:22;;;;;;;59.60;24.90;;;;;;;;;;4916587;29;20051;-80
2022/01/27 05:32:48;;;;;;;64.28;24.08;;;;;;;;;;4914740;29;20100;-79
2022/01/27 05:35:14;;;;;;;61.05;23.70;;;;;;;;;;4928067;29;20337;-80
2022/01/27 05:37:40;;;;;;;65.43;25.77;;;;;;;;;;4944926;29;20447;-78
2022/01/27 05:40:07;;;;;;;69.03;25.40;;;;;;;;;;4927343;29;20048;-80
2022/01/27 05:42:33;;;;;;;64.57;24.70;;;;;;;;;;4932269;29;20086;-80
2022/01/27 05:44:59;;;;;;;65.68;25.65;;;;;;;;;;4931280;29;20047;-75
2022/01/27 05:47:25;;;;;;;68.15;25.20;;;;;;;;;;4947417;29;20468;-80
2022/01/27 05:49:51;;;;;;;74.88;25.42;;;;;;;;;;4926405;29;20052;-78
2022/01/27 05:52:17;;;;;;;61.53;24.58;;;;;;;;;;4925167;29;20047;-78
2022/01/27 05:54:45;;;;;;;70.38;25.05;;;;;;;;;;4902068;29;20069;-79
2022/01/27 05:57:12;;;;;;;74.70;26.45;;;;;;;;;;4926690;29;20146;-78
2022/01/27 05:59:39;;;;;;;70.85;25.83;;;;;;;;;;4904672;29;20517;-79
2022/01/27 06:02:05;;;;;;;73.78;26.55;;;;;;;;;;4912827;29;20126;-79
2022/01/27 06:04:31;;;;;;;365.27;89.57;;;;;;;;;;4931314;29;20043;-79
2022/01/27 06:06:57;;;;;;;242.90;69.35;;;;;;;;;;4927262;29;20043;-80
2022/01/27 06:09:23;;;;;;;69.70;23.17;;;;;;;;;;4951809;29;20976;-79
2022/01/27 06:11:50;;;;;;;310.07;79.67;;;;;;;;;;4919991;29;20063;-78
2022/01/27 06:14:17;;;;;;;77.75;24.17;;;;;;;;;;4928831;29;20051;-79
2022/01/27 06:16:45;;;;;;;313.43;99.80;;;;;;;;;;4933439;29;20051;-79
2022/01/27 06:19:12;;;;;;;236.27;78.82;;;;;;;;;;4919669;29;20058;-78
2022/01/27 06:21:39;;;;;;;73.03;20.50;;;;;;;;;;4905170;29;20404;-78
2022/01/27 06:24:05;;;;;;;365.50;86.57;;;;;;;;;;4936989;29;20829;-77
2022/01/27 06:26:32;;;;;;;330.43;84.10;;;;;;;;;;4933759;29;20043;-77
2022/01/27 06:28:58;;;;;;;309.00;81.45;;;;;;;;;;4935975;29;20045;-77
2022/01/27 06:31:24;;;;;;;62.00;19.20;;;;;;;;;;4947480;29;20480;-77
2022/01/27 06:33:52;;;;;;;65.68;23.25;;;;;;;;;;4913288;29;20074;-78
2022/01/27 06:36:18;;;;;;;65.72;23.55;;;;;;;;;;4920015;29;20186;-79
2022/01/27 06:38:44;;;;;;;66.95;19.42;;;;;;;;;;4927502;29;20063;-77
2022/01/27 06:41:11;;;;;;;61.63;21.02;;;;;;;;;;4923607;29;20055;-79
2022/01/27 06:43:37;;;;;;;382.52;93.18;;;;;;;;;;4936723;29;20501;-78
2022/01/27 06:46:03;;;;;;;337.10;80.40;;;;;;;;;;4938114;28;20043;-79
2022/01/27 06:48:29;;;;;;;301.63;77.75;;;;;;;;;;4918893;29;20047;-78
2022/01/27 06:50:56;;;;;;;341.93;78.70;;;;;;;;;;4931594;29;20052;-79
2022/01/27 06:53:23;;;;;;;54.03;20.67;;;;;;;;;;4933900;29;20050;-79
2022/01/27 06:55:49;;;;;;;66.63;21.40;;;;;;;;;;4926959;29;20086;-78
2022/01/27 06:58:15;;;;;;;64.07;22.33;;;;;;;;;;4918762;29;20440;-79
2022/01/27 07:00:42;;;;;;;312.55;77.78;;;;;;;;;;4934767;29;20047;-79
2022/01/27 07:03:08;;;;;;;370.80;94.47;;;;;;;;;;4941983;29;20048;-77
2022/01/27 07:05:34;;;;;;;60.72;21.85;;;;;;;;;;4935348;29;20501;-78
2022/01/27 07:08:01;;;;;;;64.55;19.98;;;;;;;;;;4934584;29;20056;-78
2022/01/27 07:10:27;;;;;;;338.03;83.53;;;;;;;;;;4924883;29;20099;-78
2022/01/27 07:12:53;;;;;;;368.43;87.37;;;;;;;;;;4930189;29;20405;-79
2022/01/27 07:15:19;;;;;;;223.20;71.97;;;;;;;;;;4937561;28;20060;-79
2022/01/27 07:17:47;;;;;;;294.20;73.80;;;;;;;;;;4936973;29;20103;-78
2022/01/27 07:20:13;;;;;;;50.55;17.98;;;;;;;;;;4927409;29;20075;-79
2022/01/27 07:22:39;;;;;;;53.35;19.45;;;;;;;;;;4936467;29;20148;-78
2022/01/27 07:25:06;;;;;;;52.15;20.38;;;;;;;;;;4950559;29;20047;-78
2022/01/27 07:27:32;;;;;;;56.60;21.92;;;;;;;;;;4932096;29;20432;-78
2022/01/27 07:29:59;;;;;;;53.97;21.20;;;;;;;;;;4933484;29;20070;-78
2022/01/27 07:32:25;;;;;;;55.55;20.40;;;;;;;;;;4936092;29;20055;-78
2022/01/27 07:34:51;;;;;;;56.40;20.42;;;;;;;;;;4919562;29;20047;-79
2022/01/27 07:37:17;;;;;;;57.03;21.80;;;;;;;;;;4908565;29;20138;-79
2022/01/27 07:39:43;;;;;;;61.53;22.02;;;;;;;;;;4934866;29;20048;-79
2022/01/27 07:42:10;;;;;;;60.58;20.85;;;;;;;;;;4933858;29;20402;-77
2022/01/27 07:44:36;;;;;;;63.10;21.13;;;;;;;;;;4932203;29;20498;-78
2022/01/27 07:47:03;;;;;;;61.60;21.40;;;;;;;;;;4924042;29;20399;-81
2022/01/27 07:49:29;;;;;;;57.22;20.40;;;;;;;;;;4921726;29;20288;-78
2022/01/27 07:51:55;;;;;;;53.58;19.42;;;;;;;;;;4935632;29;20094;-79
2022/01/27 07:54:21;;;;;;;61.10;20.23;;;;;;;;;;4909374;29;20094;-80
2022/01/27 07:56:47;;;;;;;57.30;20.08;;;;;;;;;;4915347;29;20087;-80
2022/01/27 07:59:13;;;;;;;56.72;19.45;;;;;;;;;;4902986;29;20496;-79
2022/01/27 08:01:39;;;;;;;59.63;19.90;;;;;;;;;;4933232;29;20051;-80
2022/01/27 08:04:06;;;;;;;57.75;19.67;;;;;;;;;;4917748;29;20035;-80
2022/01/27 08:06:32;;;;;;;51.72;18.10;;;;;;;;;;4935118;29;20220;-80
2022/01/27 08:08:58;;;;;;;55.95;16.30;;;;;;;;;;4931085;29;20491;-80
2022/01/27 08:11:24;;;;;;;49.75;17.42;;;;;;;;;;4949215;29;20074;-79
2022/01/27 08:13:50;;;;;;;41.50;15.23;;;;;;;;;;4933434;29;20047;-79
2022/01/27 08:16:16;;;;;;;39.70;13.95;;;;;;;;;;4932738;29;20074;-80
2022/01/27 08:18:42;;;;;;;40.08;14.13;;;;;;;;;;4930635;29;20051;-79
2022/01/27 08:21:08;;;;;;;49.53;14.27;;;;;;;;;;4931531;29;20039;-78
2022/01/27 08:23:35;;;;;;;36.90;13.68;;;;;;;;;;4929331;29;20230;-81
2022/01/27 08:26:09;;;;;;;44.13;13.15;;;;;;;;;;4932743;29;20050;-76
2022/01/27 08:31:05;;;;;;;45.05;13.15;;;;;;;;;;4930976;29;20139;-79
2022/01/27 08:33:32;;;;;;;38.78;13.07;;;;;;;;;;4932873;29;20643;-81
2022/01/27 08:35:59;;;;;;;41.67;13.25;;;;;;;;;;4916839;29;20082;-83
2022/01/27 08:38:26;;;;;;;47.08;11.48;;;;;;;;;;4933127;29;20434;-83
2022/01/27 08:40:52;;;;;;;34.95;10.75;;;;;;;;;;4934095;29;20138;-82
2022/01/27 08:43:18;;;;;;;46.50;11.07;;;;;;;;;;4933036;29;20047;-84
2022/01/27 08:45:46;;;;;;;29.27;10.07;;;;;;;;;;4918538;29;20039;-83
2022/01/27 08:48:17;;;;;;;35.05;10.48;;;;;;;;;;4917032;29;20047;-82
2022/01/27 08:50:50;;;;;;;40.25;11.10;;;;;;;;;;4917155;29;20074;-84
2022/01/27 08:53:16;;;;;;;34.40;11.03;;;;;;;;;;4935415;29;20051;-80
2022/01/27 08:55:45;;;;;;;32.65;10.90;;;;;;;;;;4919732;29;20066;-84
2022/01/27 08:58:14;;;;;;;39.63;10.57;;;;;;;;;;4934780;29;20051;-84
2022/01/27 09:00:40;;;;;;;28.90;9.13;;;;;;;;;;4924636;29;20056;-84
2022/01/27 09:03:06;;;;;;;38.50;10.35;;;;;;;;;;4910904;29;20047;-84
2022/01/27 09:05:33;;;;;;;39.50;10.00;;;;;;;;;;4936156;29;20404;-84
2022/01/27 09:07:59;;;;;;;31.38;9.00;;;;;;;;;;4909151;29;20055;-87
2022/01/27 09:10:31;;;;;;;40.42;9.25;;;;;;;;;;4907254;29;20149;-84
2022/01/27 09:12:58;;;;;;;33.13;8.82;;;;;;;;;;4924400;29;20061;-84
2022/01/27 09:15:24;;;;;;;37.17;8.90;;;;;;;;;;4905988;29;20139;-75
2022/01/27 09:17:51;;;;;;;38.10;11.60;;;;;;;;;;4925118;29;20114;-87
2022/01/27 09:20:17;;;;;;;29.48;8.88;;;;;;;;;;4924672;29;20051;-80
2022/01/27 09:22:43;;;;;;;32.97;8.10;;;;;;;;;;4924013;29;20098;-83
2022/01/27 09:25:15;;;;;;;29.60;7.18;;;;;;;;;;4955787;29;20105;-83
2022/01/27 09:27:43;;;;;;;32.90;8.05;;;;;;;;;;4939421;29;20047;-84
2022/01/27 09:30:10;;;;;;;29.55;8.52;;;;;;;;;;4941240;29;20110;-84
2022/01/27 09:32:36;;;;;;;31.88;7.80;;;;;;;;;;4951231;29;20039;-85
2022/01/27 09:35:02;;;;;;;25.20;7.07;;;;;;;;;;4932715;29;20244;-83
2022/01/27 09:37:28;;;;;;;26.58;7.60;;;;;;;;;;4947369;29;20126;-86
2022/01/27 09:39:54;;;;;;;24.90;6.63;;;;;;;;;;4942431;29;20451;-83
2022/01/27 09:42:23;;;;;;;36.03;8.15;;;;;;;;;;4938759;29;20130;-83
2022/01/27 09:44:52;;;;;;;27.85;7.25;;;;;;;;;;4924033;29;20050;-86
2022/01/27 09:47:18;;;;;;;31.25;7.47;;;;;;;;;;4916086;29;20356;-80
2022/01/27 09:49:54;;;;;;;32.88;8.68;;;;;;;;;;4932147;29;20043;-86
2022/01/27 09:52:21;;;;;;;36.80;8.52;;;;;;;;;;4908897;29;20050;-80
2022/01/27 09:54:47;;;;;;;26.98;6.78;;;;;;;;;;4938681;29;20051;-80
2022/01/27 09:57:17;;;;;;;26.73;6.32;;;;;;;;;;4935966;29;20047;-82
2022/01/27 09:59:43;;;;;;;33.53;8.13;;;;;;;;;;4922582;29;20079;-87
2022/01/27 10:02:10;;;;;;;30.33;7.50;;;;;;;;;;4928824;29;20122;-93
2022/01/27 10:04:42;;;;;;;34.17;7.20;;;;;;;;;;4955740;28;20125;-93
2022/01/27 10:07:09;;;;;;;33.15;7.47;;;;;;;;;;4928283;29;20120;-89
2022/01/27 10:09:35;;;;;;;29.10;7.57;;;;;;;;;;4926751;29;20395;-93
2022/01/27 10:12:02;;;;;;;26.70;6.70;;;;;;;;;;4934183;29;20051;-91
2022/01/27 10:14:35;;;;;;;30.25;6.40;;;;;;;;;;4915150;29;20476;-86
2022/01/27 10:17:04;;;;;;;22.17;5.88;;;;;;;;;;4949295;29;20062;-93
2022/01/27 10:19:30;;;;;;;35.08;6.57;;;;;;;;;;4931178;29;20522;-92
2022/01/27 10:22:04;;;;;;;29.73;6.00;;;;;;;;;;4911706;29;20047;-86
2022/01/27 10:24:32;;;;;;;32.20;7.13;;;;;;;;;;4952916;28;20043;-87
2022/01/27 10:27:30;;;;;;;31.38;6.47;;;;;;;;;;4920053;29;20668;-88
2022/01/27 10:32:24;;;;;;;45.13;6.90;;;;;;;;;;4933681;29;20074;-82
2022/01/27 10:34:54;;;;;;;31.27;6.93;;;;;;;;;;4919445;29;20483;-86
2022/01/27 10:37:21;;;;;;;30.88;6.88;;;;;;;;;;4920570;28;20063;-82
2022/01/27 10:39:47;;;;;;;32.30;7.85;;;;;;;;;;4930526;29;20527;-86
2022/01/27 10:42:13;;;;;;;26.15;5.60;;;;;;;;;;4913953;28;20098;-83
2022/01/27 10:44:46;;;;;;;25.42;6.35;;;;;;;;;;4922202;29;20054;-86
2022/01/27 10:47:18;;;;;;;23.20;5.73;;;;;;;;;;4931502;29;20066;-87
2022/01/27 10:49:49;;;;;;;28.38;6.43;;;;;;;;;;4936775;29;20593;-84
2022/01/27 10:52:42;;;;;;;24.23;6.13;;;;;;;;;;4935101;29;20047;-87
2022/01/27 10:55:10;;;;;;;24.33;6.00;;;;;;;;;;4926506;29;20047;-85
2022/01/27 10:57:36;;;;;;;29.15;6.05;;;;;;;;;;4927685;29;20151;-84
2022/01/27 11:00:15;;;;;;;26.42;5.68;;;;;;;;;;4918419;29;20059;-83
2022/01/27 11:02:49;;;;;;;26.90;6.15;;;;;;;;;;4918032;29;20043;-83
2022/01/27 11:05:19;;;;;;;22.05;4.85;;;;;;;;;;4941602;29;20083;-85
2022/01/27 11:07:46;;;;;;;26.13;5.90;;;;;;;;;;4927183;29;20310;-82
2022/01/27 11:10:12;;;;;;;27.02;5.30;;;;;;;;;;4931934;29;20110;-84
2022/01/27 11:12:38;;;;;;;29.38;4.50;;;;;;;;;;4918930;29;20059;-85
2022/01/27 11:15:05;;;;;;;20.98;4.35;;;;;;;;;;4920594;29;20059;-83
2022/01/27 11:17:36;;;;;;;25.33;4.95;;;;;;;;;;4912968;29;20055;-86
2022/01/27 11:28:00;;;;;;;22.52;4.55;;;;;;;;;;4934068;28;20051;-84
2022/01/27 11:30:26;;;;;;;28.67;5.38;;;;;;;;;;4951428;29;20039;-87
2022/01/27 11:33:07;;;;;;;26.50;5.32;;;;;;;;;;4935372;29;20054;-85
2022/01/27 11:35:33;;;;;;;27.58;5.13;;;;;;;;;;4933039;29;20047;-82
2022/01/27 11:38:03;;;;;;;27.05;4.05;;;;;;;;;;4912197;29;20060;-81
2022/01/27 11:40:38;;;;;;;28.35;4.75;;;;;;;;;;4928909;29;20203;-81
2022/01/27 11:43:06;;;;;;;28.60;5.50;;;;;;;;;;4935320;29;20146;-82
2022/01/27 11:45:42;;;;;;;34.13;5.60;;;;;;;;;;4933598;29;20463;-82
2022/01/27 11:48:14;;;;;;;24.17;4.05;;;;;;;;;;4930677;29;20586;-86
2022/01/27 11:50:50;;;;;;;32.35;5.15;;;;;;;;;;4923829;29;20407;-82
2022/01/27 11:53:35;;;;;;;25.27;4.57;;;;;;;;;;4930077;29;20492;-82
2022/01/27 11:56:06;;;;;;;29.95;4.78;;;;;;;;;;4949573;29;20079;-82
2022/01/27 11:58:43;;;;;;;25.15;5.15;;;;;;;;;;4930009;29;20265;-80
2022/01/27 12:01:11;;;;;;;31.20;5.30;;;;;;;;;;4930074;29;20053;-82
2022/01/27 12:03:38;;;;;;;26.20;4.63;;;;;;;;;;4936624;29;20047;-83
2022/01/27 12:06:32;;;;;;;30.73;4.30;;;;;;;;;;4934619;29;20123;-84
2022/01/27 12:09:16;;;;;;;25.15;4.57;;;;;;;;;;4915982;29;20063;-83
2022/01/27 12:11:44;;;;;;;24.52;4.13;;;;;;;;;;4934535;29;20059;-82
2022/01/27 12:14:11;;;;;;;29.98;4.65;;;;;;;;;;4932857;29;20047;-87
2022/01/27 12:16:51;;;;;;;31.13;6.13;;;;;;;;;;4917920;29;20055;-84
2022/01/27 12:19:17;;;;;;;25.60;5.25;;;;;;;;;;4925211;29;20049;-87
2022/01/27 12:21:48;;;;;;;;;;;;;;;;;;4950454;29;20046;-86
2022/01/27 12:24:16;;;;;;;;;;;;;;;;;;4931726;29;19926;-86
2022/01/27 12:26:42;;;;;;;;;;;;;;;;;;4926380;29;19923;-86
2022/01/27 12:29:08;;;;;;;;;;;;;;;;;;4953055;28;19986;-85
2022/01/27 12:31:34;;;;;;;;;;;;;;;;;;4935869;29;19930;-82
2022/01/27 12:34:00;;;;;;;;;;;;;;;;;;4935263;29;19937;-91
2022/01/27 12:36:26;;;;;;;;;;;;;;;;;;4937181;29;19937;-91
2022/01/27 12:38:51;;;;;;;;;;;;;;;;;;4933420;29;19929;-86
2022/01/27 12:41:17;;;;;;;;;;;;;;;;;;4934323;29;19929;-93
2022/01/27 12:43:46;;;;;;;;;;;;;;;;;;4920948;29;20424;-91
2022/01/27 12:46:12;;;;;;;;;;;;;;;;;;4929875;29;19966;-90
2022/01/27 12:48:38;;;;;;;;;;;;;;;;;;4933674;29;19922;-87
2022/01/27 12:51:05;;;;;;;;;;;;;;;;;;4922432;29;19930;-85
2022/01/27 12:53:33;;;;;;;;;;;;;;;;;;4913205;29;20006;-88
2022/01/27 12:56:00;;;;;;;;;;;;;;;;;;4932917;29;20154;-85
2022/01/27 12:58:27;;;;;;;;;;;;;;;;;;4914561;29;19926;-86
2022/01/27 13:00:53;;;;;;;;;;;;;;;;;;4935575;29;20025;-88
2022/01/27 13:03:21;;;;;;;;;;;;;;;;;;4926575;29;19926;-88
2022/01/27 13:05:49;;;;;;;;;;;;;;;;;;4923607;29;19970;-91
2022/01/27 13:08:15;;;;;;;;;;;;;;;;;;4941937;29;19937;-95
2022/01/27 13:10:41;;;;;;;;;;;;;;;;;;4941051;29;19923;-88
2022/01/27 13:13:07;;;;;;;;;;;;;;;;;;4939897;29;19950;-87
2022/01/27 13:15:33;;;;;;;;;;;;;;;;;;4941953;29;20305;-89
2022/01/27 13:18:05;;;;;;;;;;;;;;;;;;4921038;29;19982;-89
2022/01/27 13:20:35;;;;;;;;;;;;;;;;;;4919461;29;20302;-91
2022/01/27 13:23:06;;;;;;;;;;;;;;;;;;4923693;29;20389;-88
2022/01/27 13:25:32;;;;;;;;;;;;;;;;;;4944828;29;19930;-87
2022/01/27 13:27:58;;;;;;;;;;;;;;;;;;4928379;29;19930;-89
2022/01/27 13:30:24;;;;;;;;;;;;;;;;;;4945125;29;19930;-87
2022/01/27 13:32:50;;;;;;;;;;;;;;;;;;4920522;29;19923;-88
2022/01/27 13:35:16;;;;;;;;;;;;;;;;;;4911745;29;19974;-83
2022/01/27 13:37:42;;;;;;;;;;;;;;;;;;4930425;29;19923;-93
2022/01/27 13:42:53;;;;;;;;;;;;;;;;;;4935414;29;20005;-95
2022/01/27 13:45:19;;;;;;;;;;;;;;;;;;4921804;29;19934;-82
2022/01/27 13:47:45;;;;;;;;;;;;;;;;;;4934553;29;19922;-84
2022/01/27 13:50:11;;;;;;;;;;;;;;;;;;4924751;29;20009;-82
2022/01/27 13:52:37;;;;;;;;;;;;;;;;;;4925764;29;20075;-92
2022/01/27 13:55:03;;;;;;;;;;;;;;;;;;4917342;29;19989;-90
2022/01/27 13:57:29;;;;;;;;;;;;;;;;;;4936075;29;19930;-89
2022/01/27 13:59:58;;;;;;;;;;;;;;;;;;4932833;29;20311;-88
2022/01/27 14:02:23;;;;;;;;;;;;;;;;;;4929361;29;20294;-90
2022/01/27 14:04:49;;;;;;;;;;;;;;;;;;4932712;29;19926;-84
2022/01/27 14:07:15;;;;;;;;;;;;;;;;;;4932701;29;20314;-83
2022/01/27 14:09:41;;;;;;;;;;;;;;;;;;4922528;29;19929;-83
2022/01/27 14:12:07;;;;;;;;;;;;;;;;;;4920226;29;19978;-83
2022/01/27 14:14:33;;;;;;;;;;;;;;;;;;4939229;29;19961;-84
2022/01/27 14:16:59;;;;;;;;;;;;;;;;;;4908134;29;20374;-88
2022/01/27 14:19:25;;;;;;;;;;;;;;;;;;4927725;29;20290;-84
2022/01/27 14:21:51;;;;;;;;;;;;;;;;;;4923539;29;20001;-88
2022/01/27 14:24:22;;;;;;;;;;;;;;;;;;4922108;29;19991;-84
2022/01/27 14:26:49;;;;;;;;;;;;;;;;;;4920854;29;20391;-89
2022/01/27 14:29:15;;;;;;;;;;;;;;;;;;4922462;29;19930;-83
2022/01/27 14:31:41;;;;;;;;;;;;;;;;;;4908941;29;19936;-82
2022/01/27 14:34:07;;;;;;;;;;;;;;;;;;4932138;29;19974;-81
2022/01/27 14:36:34;;;;;;;;;;;;;;;;;;4935433;29;19962;-81
2022/01/27 14:39:00;;;;;;;;;;;;;;;;;;4922908;29;19933;-84
2022/01/27 14:41:27;;;;;;;;;;;;;;;;;;4938841;29;19926;-83
2022/01/27 14:43:53;;;;;;;;;;;;;;;;;;4934550;29;19985;-90
2022/01/27 14:46:29;;;;;;;;;;;;;;;;;;4922321;29;19953;-82
2022/01/27 14:48:58;;;;;;;;;;;;;;;;;;4933301;29;19922;-79
2022/01/27 14:51:26;;;;;;;;;;;;;;;;;;4924126;29;19923;-84
2022/01/27 14:53:52;;;;;;;;;;;;;;;;;;4919722;29;19922;-84
2022/01/27 14:56:18;;;;;;;;;;;;;;;;;;4920001;29;19922;-82
2022/01/27 14:58:44;;;;;;;;;;;;;;;;;;4917041;29;19929;-84
2022/01/27 15:01:10;;;;;;;;;;;;;;;;;;4928846;29;19927;-86
2022/01/27 15:03:36;;;;;;;;;;;;;;;;;;4933110;29;19977;-86
2022/01/27 15:06:02;;;;;;;;;;;;;;;;;;4906241;29;19930;-85
2022/01/27 15:08:28;;;;;;;;;;;;;;;;;;4931103;29;19927;-87
2022/01/27 15:10:54;;;;;;;;;;;;;;;;;;4936159;29;19926;-85
2022/01/27 15:13:21;;;;;;;;;;;;;;;;;;4938173;29;20062;-87
2022/01/27 15:18:51;;;;;;;;;;;;;;;;;;4937814;29;20013;-88
2022/01/27 15:21:17;;;;;;;;;;;;;;;;;;4923633;29;19931;-86
2022/01/27 15:23:43;;;;;;;;;;;;;;;;;;4923351;29;19997;-89
2022/01/27 15:26:09;;;;;;;;;;;;;;;;;;4938778;29;20090;-88
2022/01/27 15:28:35;;;;;;;;;;;;;;;;;;4915008;29;19949;-95
2022/01/27 15:31:01;;;;;;;;;;;;;;;;;;4926762;29;20302;-81
2022/01/27 15:33:28;;;;;;;;;;;;;;;;;;4906752;29;20050;-78
2022/01/27 15:35:55;;;;;;;;;;;;;;;;;;4915608;29;19923;-81
2022/01/27 15:38:23;;;;;;;;;;;;;;;;;;4924972;29;19948;-78
2022/01/27 15:40:49;;;;;;;;;;;;;;;;;;4917894;29;19923;-81
2022/01/27 15:43:15;;;;;;;;;;;;;;;;;;4932299;29;19975;-82